Terminal Aerodrome Forecast
Issued by NWS

Home | Current Version | Previous Version | Text Only | Print | Product List | Glossary On
Versions: 1 2 3 4 5 6 7 8 9 10 11 12 13 14
000
FTUS45 KABQ 230500
TAFFMN
TAF
KFMN 230538Z 2306/2406 22008KT P6SM BKN120
     FM231600 25014KT P6SM FEW120
     FM231800 26014G24KT P6SM SCT120
     FM232200 29021G31KT P6SM SCT120
     FM240200 30011KT P6SM SKC=

USA.gov is the U.S. government's official web portal to all federal, state and local government web resources and services.